sensor_id;sensor_type;location;lat;lon;timestamp;P1;durP1;ratioP1;P2;durP2;ratioP2
10418;SDS011;5256;48.728;9.140;2024-03-22T00:01:47;0.40;;;0.40;;
10418;SDS011;5256;48.728;9.140;2024-03-22T00:04:13;0.60;;;0.60;;
10418;SDS011;5256;48.728;9.140;2024-03-22T00:06:40;0.60;;;0.60;;
10418;SDS011;5256;48.728;9.140;2024-03-22T00:09:07;0.50;;;0.50;;
10418;SDS011;5256;48.728;9.140;2024-03-22T00:11:32;0.60;;;0.60;;
10418;SDS011;5256;48.728;9.140;2024-03-22T00:13:58;0.50;;;0.50;;
10418;SDS011;5256;48.728;9.140;2024-03-22T00:16:23;0.60;;;0.60;;
10418;SDS011;5256;48.728;9.140;2024-03-22T00:18:49;0.60;;;0.60;;
10418;SDS011;5256;48.728;9.140;2024-03-22T00:21:15;0.60;;;0.60;;
10418;SDS011;5256;48.728;9.140;2024-03-22T00:23:41;0.60;;;0.60;;
10418;SDS011;5256;48.728;9.140;2024-03-22T00:26:07;0.50;;;0.50;;
10418;SDS011;5256;48.728;9.140;2024-03-22T00:28:33;0.50;;;0.50;;
10418;SDS011;5256;48.728;9.140;2024-03-22T00:30:58;0.50;;;0.50;;
10418;SDS011;5256;48.728;9.140;2024-03-22T00:33:24;0.50;;;0.50;;
10418;SDS011;5256;48.728;9.140;2024-03-22T00:35:50;0.60;;;0.60;;
10418;SDS011;5256;48.728;9.140;2024-03-22T00:38:15;0.57;;;0.57;;
10418;SDS011;5256;48.728;9.140;2024-03-22T00:40:41;0.60;;;0.60;;
10418;SDS011;5256;48.728;9.140;2024-03-22T00:43:07;0.60;;;0.60;;
10418;SDS011;5256;48.728;9.140;2024-03-22T00:45:32;0.60;;;0.60;;
10418;SDS011;5256;48.728;9.140;2024-03-22T00:47:58;0.70;;;0.70;;
10418;SDS011;5256;48.728;9.140;2024-03-22T00:50:23;0.70;;;0.70;;
10418;SDS011;5256;48.728;9.140;2024-03-22T00:52:52;0.70;;;0.70;;
10418;SDS011;5256;48.728;9.140;2024-03-22T00:55:19;0.70;;;0.70;;
10418;SDS011;5256;48.728;9.140;2024-03-22T00:57:45;0.70;;;0.70;;
10418;SDS011;5256;48.728;9.140;2024-03-22T01:00:10;0.50;;;0.50;;
10418;SDS011;5256;48.728;9.140;2024-03-22T01:02:36;0.63;;;0.63;;
10418;SDS011;5256;48.728;9.140;2024-03-22T01:05:02;0.60;;;0.60;;
10418;SDS011;5256;48.728;9.140;2024-03-22T01:07:28;0.67;;;0.67;;
10418;SDS011;5256;48.728;9.140;2024-03-22T01:09:53;0.77;;;0.77;;
10418;SDS011;5256;48.728;9.140;2024-03-22T01:12:19;0.60;;;0.60;;
10418;SDS011;5256;48.728;9.140;2024-03-22T01:14:44;0.60;;;0.60;;
10418;SDS011;5256;48.728;9.140;2024-03-22T01:17:10;0.60;;;0.60;;
10418;SDS011;5256;48.728;9.140;2024-03-22T01:19:35;0.60;;;0.60;;
10418;SDS011;5256;48.728;9.140;2024-03-22T01:22:01;0.60;;;0.60;;
10418;SDS011;5256;48.728;9.140;2024-03-22T01:24:26;0.73;;;0.73;;
10418;SDS011;5256;48.728;9.140;2024-03-22T01:26:52;0.70;;;0.70;;
10418;SDS011;5256;48.728;9.140;2024-03-22T01:29:18;0.70;;;0.70;;
10418;SDS011;5256;48.728;9.140;2024-03-22T01:31:43;0.70;;;0.70;;
10418;SDS011;5256;48.728;9.140;2024-03-22T01:34:09;0.70;;;0.70;;
10418;SDS011;5256;48.728;9.140;2024-03-22T01:36:34;0.60;;;0.60;;
10418;SDS011;5256;48.728;9.140;2024-03-22T01:39:00;0.60;;;0.60;;
10418;SDS011;5256;48.728;9.140;2024-03-22T01:41:25;0.60;;;0.60;;
10418;SDS011;5256;48.728;9.140;2024-03-22T01:43:51;0.70;;;0.70;;
10418;SDS011;5256;48.728;9.140;2024-03-22T01:46:17;0.60;;;0.60;;
10418;SDS011;5256;48.728;9.140;2024-03-22T01:48:43;0.60;;;0.60;;
10418;SDS011;5256;48.728;9.140;2024-03-22T01:51:09;0.60;;;0.60;;
10418;SDS011;5256;48.728;9.140;2024-03-22T01:53:35;0.60;;;0.60;;
10418;SDS011;5256;48.728;9.140;2024-03-22T01:56:02;0.60;;;0.60;;
10418;SDS011;5256;48.728;9.140;2024-03-22T01:58:28;0.70;;;0.70;;
10418;SDS011;5256;48.728;9.140;2024-03-22T02:00:54;0.63;;;0.63;;
10418;SDS011;5256;48.728;9.140;2024-03-22T02:03:21;0.70;;;0.70;;
10418;SDS011;5256;48.728;9.140;2024-03-22T02:05:46;0.70;;;0.70;;
10418;SDS011;5256;48.728;9.140;2024-03-22T02:08:12;0.60;;;0.60;;
10418;SDS011;5256;48.728;9.140;2024-03-22T02:10:38;0.80;;;0.80;;
10418;SDS011;5256;48.728;9.140;2024-03-22T02:13:03;0.73;;;0.73;;
10418;SDS011;5256;48.728;9.140;2024-03-22T02:15:29;0.73;;;0.73;;
10418;SDS011;5256;48.728;9.140;2024-03-22T02:17:55;0.60;;;0.60;;
10418;SDS011;5256;48.728;9.140;2024-03-22T02:20:20;0.63;;;0.63;;
10418;SDS011;5256;48.728;9.140;2024-03-22T02:22:46;0.70;;;0.70;;
10418;SDS011;5256;48.728;9.140;2024-03-22T02:25:11;0.70;;;0.70;;
10418;SDS011;5256;48.728;9.140;2024-03-22T02:27:38;0.70;;;0.70;;
10418;SDS011;5256;48.728;9.140;2024-03-22T02:30:04;0.70;;;0.70;;
10418;SDS011;5256;48.728;9.140;2024-03-22T02:32:30;0.60;;;0.60;;
10418;SDS011;5256;48.728;9.140;2024-03-22T02:34:55;0.70;;;0.70;;
10418;SDS011;5256;48.728;9.140;2024-03-22T02:37:21;0.60;;;0.60;;
10418;SDS011;5256;48.728;9.140;2024-03-22T02:39:46;0.67;;;0.67;;
10418;SDS011;5256;48.728;9.140;2024-03-22T02:42:12;0.60;;;0.60;;
10418;SDS011;5256;48.728;9.140;2024-03-22T02:44:37;0.60;;;0.60;;
10418;SDS011;5256;48.728;9.140;2024-03-22T02:47:07;0.60;;;0.60;;
10418;SDS011;5256;48.728;9.140;2024-03-22T02:49:38;0.60;;;0.60;;
10418;SDS011;5256;48.728;9.140;2024-03-22T02:52:04;0.60;;;0.60;;
10418;SDS011;5256;48.728;9.140;2024-03-22T02:54:29;0.70;;;0.70;;
10418;SDS011;5256;48.728;9.140;2024-03-22T02:56:55;0.70;;;0.70;;
10418;SDS011;5256;48.728;9.140;2024-03-22T02:59:20;0.60;;;0.60;;
10418;SDS011;5256;48.728;9.140;2024-03-22T03:01:46;0.70;;;0.70;;
10418;SDS011;5256;48.728;9.140;2024-03-22T03:04:11;0.60;;;0.60;;
10418;SDS011;5256;48.728;9.140;2024-03-22T03:06:37;0.60;;;0.60;;
10418;SDS011;5256;48.728;9.140;2024-03-22T03:09:03;0.60;;;0.60;;
10418;SDS011;5256;48.728;9.140;2024-03-22T03:11:32;0.60;;;0.60;;
10418;SDS011;5256;48.728;9.140;2024-03-22T03:13:58;0.50;;;0.50;;
10418;SDS011;5256;48.728;9.140;2024-03-22T03:16:23;0.70;;;0.70;;
10418;SDS011;5256;48.728;9.140;2024-03-22T03:18:49;0.50;;;0.50;;
10418;SDS011;5256;48.728;9.140;2024-03-22T03:21:14;0.53;;;0.53;;
10418;SDS011;5256;48.728;9.140;2024-03-22T03:23:40;0.60;;;0.60;;
10418;SDS011;5256;48.728;9.140;2024-03-22T03:26:05;0.50;;;0.50;;
10418;SDS011;5256;48.728;9.140;2024-03-22T03:28:31;0.60;;;0.60;;
10418;SDS011;5256;48.728;9.140;2024-03-22T03:30:56;0.70;;;0.70;;
10418;SDS011;5256;48.728;9.140;2024-03-22T03:33:22;0.60;;;0.60;;
10418;SDS011;5256;48.728;9.140;2024-03-22T03:35:48;0.60;;;0.60;;
10418;SDS011;5256;48.728;9.140;2024-03-22T03:38:14;0.60;;;0.60;;
10418;SDS011;5256;48.728;9.140;2024-03-22T03:40:40;0.80;;;0.80;;
10418;SDS011;5256;48.728;9.140;2024-03-22T03:43:05;0.70;;;0.70;;
10418;SDS011;5256;48.728;9.140;2024-03-22T03:45:31;0.60;;;0.60;;
10418;SDS011;5256;48.728;9.140;2024-03-22T03:47:56;0.70;;;0.70;;
10418;SDS011;5256;48.728;9.140;2024-03-22T03:50:22;0.67;;;0.67;;
10418;SDS011;5256;48.728;9.140;2024-03-22T03:52:47;0.60;;;0.60;;
10418;SDS011;5256;48.728;9.140;2024-03-22T03:55:14;0.60;;;0.60;;
10418;SDS011;5256;48.728;9.140;2024-03-22T03:57:39;0.50;;;0.50;;
10418;SDS011;5256;48.728;9.140;2024-03-22T04:00:05;0.70;;;0.70;;
10418;SDS011;5256;48.728;9.140;2024-03-22T04:02:31;0.70;;;0.70;;
10418;SDS011;5256;48.728;9.140;2024-03-22T04:04:56;0.70;;;0.70;;
10418;SDS011;5256;48.728;9.140;2024-03-22T04:07:22;0.60;;;0.60;;
10418;SDS011;5256;48.728;9.140;2024-03-22T04:09:47;0.70;;;0.70;;
10418;SDS011;5256;48.728;9.140;2024-03-22T04:12:13;0.67;;;0.67;;
10418;SDS011;5256;48.728;9.140;2024-03-22T04:14:39;0.70;;;0.70;;
10418;SDS011;5256;48.728;9.140;2024-03-22T04:17:04;0.70;;;0.70;;
10418;SDS011;5256;48.728;9.140;2024-03-22T04:19:30;0.70;;;0.70;;
10418;SDS011;5256;48.728;9.140;2024-03-22T04:21:55;0.60;;;0.60;;
10418;SDS011;5256;48.728;9.140;2024-03-22T04:24:21;0.70;;;0.70;;
10418;SDS011;5256;48.728;9.140;2024-03-22T04:26:46;0.60;;;0.60;;
10418;SDS011;5256;48.728;9.140;2024-03-22T04:29:12;0.60;;;0.60;;
10418;SDS011;5256;48.728;9.140;2024-03-22T04:31:37;0.70;;;0.70;;
10418;SDS011;5256;48.728;9.140;2024-03-22T04:34:03;0.70;;;0.70;;
10418;SDS011;5256;48.728;9.140;2024-03-22T04:36:30;0.63;;;0.63;;
10418;SDS011;5256;48.728;9.140;2024-03-22T04:38:56;0.67;;;0.67;;
10418;SDS011;5256;48.728;9.140;2024-03-22T04:41:22;0.60;;;0.60;;
10418;SDS011;5256;48.728;9.140;2024-03-22T04:43:47;0.70;;;0.70;;
10418;SDS011;5256;48.728;9.140;2024-03-22T04:46:13;0.60;;;0.60;;
10418;SDS011;5256;48.728;9.140;2024-03-22T04:48:38;0.70;;;0.70;;
10418;SDS011;5256;48.728;9.140;2024-03-22T04:51:04;0.50;;;0.50;;
10418;SDS011;5256;48.728;9.140;2024-03-22T04:53:30;0.50;;;0.50;;
10418;SDS011;5256;48.728;9.140;2024-03-22T04:55:55;0.50;;;0.50;;
10418;SDS011;5256;48.728;9.140;2024-03-22T04:58:21;0.50;;;0.50;;
10418;SDS011;5256;48.728;9.140;2024-03-22T05:00:47;0.70;;;0.70;;
10418;SDS011;5256;48.728;9.140;2024-03-22T05:03:14;0.60;;;0.60;;
10418;SDS011;5256;48.728;9.140;2024-03-22T05:05:40;0.60;;;0.60;;
10418;SDS011;5256;48.728;9.140;2024-03-22T05:08:06;0.60;;;0.60;;
10418;SDS011;5256;48.728;9.140;2024-03-22T05:10:33;0.60;;;0.60;;
10418;SDS011;5256;48.728;9.140;2024-03-22T05:12:59;0.60;;;0.60;;
10418;SDS011;5256;48.728;9.140;2024-03-22T05:15:25;0.60;;;0.60;;
10418;SDS011;5256;48.728;9.140;2024-03-22T05:17:51;0.60;;;0.60;;
10418;SDS011;5256;48.728;9.140;2024-03-22T05:20:18;0.60;;;0.60;;
10418;SDS011;5256;48.728;9.140;2024-03-22T05:22:43;0.60;;;0.60;;
10418;SDS011;5256;48.728;9.140;2024-03-22T05:25:09;0.60;;;0.60;;
10418;SDS011;5256;48.728;9.140;2024-03-22T05:27:35;0.60;;;0.60;;
10418;SDS011;5256;48.728;9.140;2024-03-22T05:30:01;0.70;;;0.70;;
10418;SDS011;5256;48.728;9.140;2024-03-22T05:32:29;0.80;;;0.80;;
10418;SDS011;5256;48.728;9.140;2024-03-22T05:34:54;0.60;;;0.60;;
10418;SDS011;5256;48.728;9.140;2024-03-22T05:37:20;0.53;;;0.53;;
10418;SDS011;5256;48.728;9.140;2024-03-22T05:39:46;0.50;;;0.50;;
10418;SDS011;5256;48.728;9.140;2024-03-22T05:42:12;0.70;;;0.70;;
10418;SDS011;5256;48.728;9.140;2024-03-22T05:44:37;0.50;;;0.50;;
10418;SDS011;5256;48.728;9.140;2024-03-22T05:47:03;0.60;;;0.60;;
10418;SDS011;5256;48.728;9.140;2024-03-22T05:49:28;0.60;;;0.60;;
10418;SDS011;5256;48.728;9.140;2024-03-22T05:51:54;0.53;;;0.53;;
10418;SDS011;5256;48.728;9.140;2024-03-22T05:54:20;0.60;;;0.60;;
10418;SDS011;5256;48.728;9.140;2024-03-22T05:56:45;0.60;;;0.60;;
10418;SDS011;5256;48.728;9.140;2024-03-22T05:59:11;0.70;;;0.70;;
10418;SDS011;5256;48.728;9.140;2024-03-22T06:01:36;0.60;;;0.60;;
10418;SDS011;5256;48.728;9.140;2024-03-22T06:04:03;0.60;;;0.60;;
10418;SDS011;5256;48.728;9.140;2024-03-22T06:06:30;0.60;;;0.60;;
10418;SDS011;5256;48.728;9.140;2024-03-22T06:08:57;0.50;;;0.50;;
10418;SDS011;5256;48.728;9.140;2024-03-22T06:11:25;0.50;;;0.50;;
10418;SDS011;5256;48.728;9.140;2024-03-22T06:13:51;0.60;;;0.60;;
10418;SDS011;5256;48.728;9.140;2024-03-22T06:16:16;0.50;;;0.50;;
10418;SDS011;5256;48.728;9.140;2024-03-22T06:18:42;0.50;;;0.50;;
10418;SDS011;5256;48.728;9.140;2024-03-22T06:21:07;0.67;;;0.67;;
10418;SDS011;5256;48.728;9.140;2024-03-22T06:23:33;0.50;;;0.50;;
10418;SDS011;5256;48.728;9.140;2024-03-22T06:25:59;0.60;;;0.60;;
10418;SDS011;5256;48.728;9.140;2024-03-22T06:28:25;0.50;;;0.50;;
10418;SDS011;5256;48.728;9.140;2024-03-22T06:30:51;0.40;;;0.40;;
10418;SDS011;5256;48.728;9.140;2024-03-22T06:33:17;0.50;;;0.50;;
10418;SDS011;5256;48.728;9.140;2024-03-22T06:35:42;0.50;;;0.50;;
10418;SDS011;5256;48.728;9.140;2024-03-22T06:38:08;0.70;;;0.70;;
10418;SDS011;5256;48.728;9.140;2024-03-22T06:40:34;0.60;;;0.60;;
10418;SDS011;5256;48.728;9.140;2024-03-22T06:43:00;0.53;;;0.53;;
10418;SDS011;5256;48.728;9.140;2024-03-22T06:45:25;0.60;;;0.60;;
10418;SDS011;5256;48.728;9.140;2024-03-22T06:47:51;0.70;;;0.70;;
10418;SDS011;5256;48.728;9.140;2024-03-22T06:50:16;0.50;;;0.50;;
10418;SDS011;5256;48.728;9.140;2024-03-22T06:52:49;0.50;;;0.50;;
10418;SDS011;5256;48.728;9.140;2024-03-22T06:55:16;0.50;;;0.50;;
10418;SDS011;5256;48.728;9.140;2024-03-22T06:57:41;0.50;;;0.50;;
10418;SDS011;5256;48.728;9.140;2024-03-22T07:00:07;0.60;;;0.60;;
10418;SDS011;5256;48.728;9.140;2024-03-22T07:02:35;0.50;;;0.50;;
10418;SDS011;5256;48.728;9.140;2024-03-22T07:05:00;0.50;;;0.50;;
10418;SDS011;5256;48.728;9.140;2024-03-22T07:07:26;0.40;;;0.40;;
10418;SDS011;5256;48.728;9.140;2024-03-22T07:09:51;0.40;;;0.40;;
10418;SDS011;5256;48.728;9.140;2024-03-22T07:12:17;0.50;;;0.50;;
10418;SDS011;5256;48.728;9.140;2024-03-22T07:14:42;0.53;;;0.53;;
10418;SDS011;5256;48.728;9.140;2024-03-22T07:17:08;0.50;;;0.50;;
10418;SDS011;5256;48.728;9.140;2024-03-22T07:19:33;0.40;;;0.40;;
10418;SDS011;5256;48.728;9.140;2024-03-22T07:21:59;0.40;;;0.40;;
10418;SDS011;5256;48.728;9.140;2024-03-22T07:24:25;0.50;;;0.50;;
10418;SDS011;5256;48.728;9.140;2024-03-22T07:26:51;0.50;;;0.50;;
10418;SDS011;5256;48.728;9.140;2024-03-22T07:29:16;0.40;;;0.40;;
10418;SDS011;5256;48.728;9.140;2024-03-22T07:31:42;0.40;;;0.40;;
10418;SDS011;5256;48.728;9.140;2024-03-22T07:34:08;0.40;;;0.40;;
10418;SDS011;5256;48.728;9.140;2024-03-22T07:36:37;0.40;;;0.40;;
10418;SDS011;5256;48.728;9.140;2024-03-22T07:39:03;0.50;;;0.50;;
10418;SDS011;5256;48.728;9.140;2024-03-22T07:41:31;0.40;;;0.40;;
10418;SDS011;5256;48.728;9.140;2024-03-22T07:43:57;0.40;;;0.40;;
10418;SDS011;5256;48.728;9.140;2024-03-22T07:46:24;0.30;;;0.30;;
10418;SDS011;5256;48.728;9.140;2024-03-22T07:48:50;0.30;;;0.30;;
10418;SDS011;5256;48.728;9.140;2024-03-22T07:51:15;0.30;;;0.30;;
10418;SDS011;5256;48.728;9.140;2024-03-22T07:53:41;0.30;;;0.30;;
10418;SDS011;5256;48.728;9.140;2024-03-22T07:56:06;0.30;;;0.30;;
10418;SDS011;5256;48.728;9.140;2024-03-22T07:58:32;0.20;;;0.20;;
10418;SDS011;5256;48.728;9.140;2024-03-22T08:00:57;0.30;;;0.30;;
10418;SDS011;5256;48.728;9.140;2024-03-22T08:03:23;0.30;;;0.30;;
10418;SDS011;5256;48.728;9.140;2024-03-22T08:05:48;0.33;;;0.33;;
10418;SDS011;5256;48.728;9.140;2024-03-22T08:08:14;0.40;;;0.40;;
10418;SDS011;5256;48.728;9.140;2024-03-22T08:10:39;0.30;;;0.30;;
10418;SDS011;5256;48.728;9.140;2024-03-22T08:13:05;0.30;;;0.30;;
10418;SDS011;5256;48.728;9.140;2024-03-22T08:15:31;0.30;;;0.30;;
10418;SDS011;5256;48.728;9.140;2024-03-22T08:17:56;0.30;;;0.30;;
10418;SDS011;5256;48.728;9.140;2024-03-22T08:20:24;0.30;;;0.30;;
10418;SDS011;5256;48.728;9.140;2024-03-22T08:22:50;0.30;;;0.30;;
10418;SDS011;5256;48.728;9.140;2024-03-22T08:25:15;0.30;;;0.30;;
10418;SDS011;5256;48.728;9.140;2024-03-22T08:27:43;0.30;;;0.30;;
10418;SDS011;5256;48.728;9.140;2024-03-22T08:30:09;0.40;;;0.40;;
10418;SDS011;5256;48.728;9.140;2024-03-22T08:32:35;0.30;;;0.30;;
10418;SDS011;5256;48.728;9.140;2024-03-22T08:35:02;0.30;;;0.30;;
10418;SDS011;5256;48.728;9.140;2024-03-22T08:37:29;0.20;;;0.20;;
10418;SDS011;5256;48.728;9.140;2024-03-22T08:39:54;0.30;;;0.30;;
10418;SDS011;5256;48.728;9.140;2024-03-22T08:42:20;0.20;;;0.20;;
10418;SDS011;5256;48.728;9.140;2024-03-22T08:44:45;0.30;;;0.30;;
10418;SDS011;5256;48.728;9.140;2024-03-22T08:47:11;0.20;;;0.20;;
10418;SDS011;5256;48.728;9.140;2024-03-22T08:49:36;0.30;;;0.30;;
10418;SDS011;5256;48.728;9.140;2024-03-22T08:52:02;0.20;;;0.20;;
10418;SDS011;5256;48.728;9.140;2024-03-22T08:54:28;0.40;;;0.40;;
10418;SDS011;5256;48.728;9.140;2024-03-22T08:56:53;0.30;;;0.30;;
10418;SDS011;5256;48.728;9.140;2024-03-22T08:59:19;0.40;;;0.40;;
10418;SDS011;5256;48.728;9.140;2024-03-22T09:01:44;0.20;;;0.20;;
10418;SDS011;5256;48.728;9.140;2024-03-22T09:04:10;0.30;;;0.30;;
10418;SDS011;5256;48.728;9.140;2024-03-22T09:06:35;0.30;;;0.30;;
10418;SDS011;5256;48.728;9.140;2024-03-22T09:09:01;0.30;;;0.30;;
10418;SDS011;5256;48.728;9.140;2024-03-22T09:11:28;0.30;;;0.30;;
10418;SDS011;5256;48.728;9.140;2024-03-22T09:13:55;0.33;;;0.33;;
10418;SDS011;5256;48.728;9.140;2024-03-22T09:16:22;0.33;;;0.33;;
10418;SDS011;5256;48.728;9.140;2024-03-22T09:18:48;0.40;;;0.40;;
10418;SDS011;5256;48.728;9.140;2024-03-22T09:21:14;0.30;;;0.30;;
10418;SDS011;5256;48.728;9.140;2024-03-22T09:23:40;0.30;;;0.30;;
10418;SDS011;5256;48.728;9.140;2024-03-22T09:26:05;0.30;;;0.30;;
10418;SDS011;5256;48.728;9.140;2024-03-22T09:28:31;0.40;;;0.40;;
10418;SDS011;5256;48.728;9.140;2024-03-22T09:30:56;0.40;;;0.40;;
10418;SDS011;5256;48.728;9.140;2024-03-22T09:33:22;0.30;;;0.30;;
10418;SDS011;5256;48.728;9.140;2024-03-22T09:35:48;0.30;;;0.30;;
10418;SDS011;5256;48.728;9.140;2024-03-22T09:38:13;0.30;;;0.30;;
10418;SDS011;5256;48.728;9.140;2024-03-22T09:40:40;0.30;;;0.30;;
10418;SDS011;5256;48.728;9.140;2024-03-22T09:43:06;0.40;;;0.40;;
10418;SDS011;5256;48.728;9.140;2024-03-22T09:45:33;0.40;;;0.40;;
10418;SDS011;5256;48.728;9.140;2024-03-22T09:47:58;0.37;;;0.37;;
10418;SDS011;5256;48.728;9.140;2024-03-22T09:50:25;0.30;;;0.30;;
10418;SDS011;5256;48.728;9.140;2024-03-22T09:52:51;0.30;;;0.30;;
10418;SDS011;5256;48.728;9.140;2024-03-22T09:55:27;0.33;;;0.33;;
10418;SDS011;5256;48.728;9.140;2024-03-22T09:57:53;0.40;;;0.40;;
10418;SDS011;5256;48.728;9.140;2024-03-22T10:00:19;0.40;;;0.40;;
10418;SDS011;5256;48.728;9.140;2024-03-22T10:02:47;0.30;;;0.30;;
10418;SDS011;5256;48.728;9.140;2024-03-22T10:05:14;0.40;;;0.40;;
10418;SDS011;5256;48.728;9.140;2024-03-22T10:07:41;0.20;;;0.20;;
10418;SDS011;5256;48.728;9.140;2024-03-22T10:10:08;0.20;;;0.20;;
10418;SDS011;5256;48.728;9.140;2024-03-22T10:12:35;0.40;;;0.40;;
10418;SDS011;5256;48.728;9.140;2024-03-22T10:15:01;0.30;;;0.30;;
10418;SDS011;5256;48.728;9.140;2024-03-22T10:17:27;0.37;;;0.37;;
10418;SDS011;5256;48.728;9.140;2024-03-22T10:19:54;0.40;;;0.40;;
10418;SDS011;5256;48.728;9.140;2024-03-22T10:22:20;0.30;;;0.30;;
10418;SDS011;5256;48.728;9.140;2024-03-22T10:24:45;0.30;;;0.30;;
10418;SDS011;5256;48.728;9.140;2024-03-22T10:27:11;0.40;;;0.40;;
10418;SDS011;5256;48.728;9.140;2024-03-22T10:29:36;0.30;;;0.30;;
10418;SDS011;5256;48.728;9.140;2024-03-22T10:32:02;0.47;;;0.47;;
10418;SDS011;5256;48.728;9.140;2024-03-22T10:34:28;0.30;;;0.30;;
10418;SDS011;5256;48.728;9.140;2024-03-22T10:36:57;0.30;;;0.30;;
10418;SDS011;5256;48.728;9.140;2024-03-22T10:39:26;0.27;;;0.27;;
10418;SDS011;5256;48.728;9.140;2024-03-22T10:41:51;0.30;;;0.30;;
10418;SDS011;5256;48.728;9.140;2024-03-22T10:44:18;0.30;;;0.30;;
10418;SDS011;5256;48.728;9.140;2024-03-22T10:46:44;0.30;;;0.30;;
10418;SDS011;5256;48.728;9.140;2024-03-22T10:49:15;0.30;;;0.30;;
10418;SDS011;5256;48.728;9.140;2024-03-22T10:51:42;0.30;;;0.30;;
10418;SDS011;5256;48.728;9.140;2024-03-22T10:54:23;0.30;;;0.30;;
10418;SDS011;5256;48.728;9.140;2024-03-22T10:56:52;0.30;;;0.30;;
10418;SDS011;5256;48.728;9.140;2024-03-22T10:59:19;0.30;;;0.30;;
10418;SDS011;5256;48.728;9.140;2024-03-22T11:01:46;0.27;;;0.27;;
10418;SDS011;5256;48.728;9.140;2024-03-22T11:04:12;0.30;;;0.30;;
10418;SDS011;5256;48.728;9.140;2024-03-22T11:06:40;0.30;;;0.30;;
10418;SDS011;5256;48.728;9.140;2024-03-22T11:09:07;0.30;;;0.30;;
10418;SDS011;5256;48.728;9.140;2024-03-22T11:11:35;0.30;;;0.30;;
10418;SDS011;5256;48.728;9.140;2024-03-22T11:14:03;0.30;;;0.30;;
10418;SDS011;5256;48.728;9.140;2024-03-22T11:16:29;0.30;;;0.30;;
10418;SDS011;5256;48.728;9.140;2024-03-22T11:18:55;0.30;;;0.30;;
10418;SDS011;5256;48.728;9.140;2024-03-22T11:21:21;0.40;;;0.40;;
10418;SDS011;5256;48.728;9.140;2024-03-22T11:23:46;0.30;;;0.30;;
10418;SDS011;5256;48.728;9.140;2024-03-22T11:26:12;0.30;;;0.30;;
10418;SDS011;5256;48.728;9.140;2024-03-22T11:28:50;0.27;;;0.27;;
10418;SDS011;5256;48.728;9.140;2024-03-22T11:31:15;0.30;;;0.30;;
10418;SDS011;5256;48.728;9.140;2024-03-22T11:33:41;0.30;;;0.30;;
10418;SDS011;5256;48.728;9.140;2024-03-22T11:36:08;0.30;;;0.30;;
10418;SDS011;5256;48.728;9.140;2024-03-22T11:38:34;0.33;;;0.33;;
10418;SDS011;5256;48.728;9.140;2024-03-22T11:41:00;0.30;;;0.30;;
10418;SDS011;5256;48.728;9.140;2024-03-22T11:43:28;0.33;;;0.33;;
10418;SDS011;5256;48.728;9.140;2024-03-22T11:45:54;0.30;;;0.30;;
10418;SDS011;5256;48.728;9.140;2024-03-22T11:48:21;0.30;;;0.30;;
10418;SDS011;5256;48.728;9.140;2024-03-22T11:50:47;0.40;;;0.40;;
10418;SDS011;5256;48.728;9.140;2024-03-22T11:53:13;0.30;;;0.30;;
10418;SDS011;5256;48.728;9.140;2024-03-22T11:55:41;0.30;;;0.30;;
10418;SDS011;5256;48.728;9.140;2024-03-22T11:58:08;0.30;;;0.30;;
10418;SDS011;5256;48.728;9.140;2024-03-22T12:03:42;0.20;;;0.20;;
10418;SDS011;5256;48.728;9.140;2024-03-22T12:06:09;0.27;;;0.27;;
10418;SDS011;5256;48.728;9.140;2024-03-22T12:08:36;0.27;;;0.27;;
10418;SDS011;5256;48.728;9.140;2024-03-22T12:11:03;0.30;;;0.30;;
10418;SDS011;5256;48.728;9.140;2024-03-22T12:13:29;0.30;;;0.30;;
10418;SDS011;5256;48.728;9.140;2024-03-22T12:15:54;0.30;;;0.30;;
10418;SDS011;5256;48.728;9.140;2024-03-22T12:18:20;0.30;;;0.30;;
10418;SDS011;5256;48.728;9.140;2024-03-22T12:20:46;0.30;;;0.30;;
10418;SDS011;5256;48.728;9.140;2024-03-22T12:23:11;0.40;;;0.40;;
10418;SDS011;5256;48.728;9.140;2024-03-22T12:25:37;0.30;;;0.30;;
10418;SDS011;5256;48.728;9.140;2024-03-22T12:28:12;0.23;;;0.23;;
10418;SDS011;5256;48.728;9.140;2024-03-22T12:30:38;0.30;;;0.30;;
10418;SDS011;5256;48.728;9.140;2024-03-22T12:33:03;0.30;;;0.30;;
10418;SDS011;5256;48.728;9.140;2024-03-22T12:35:33;0.20;;;0.20;;
10418;SDS011;5256;48.728;9.140;2024-03-22T12:37:59;0.23;;;0.23;;
10418;SDS011;5256;48.728;9.140;2024-03-22T12:40:25;0.30;;;0.30;;
10418;SDS011;5256;48.728;9.140;2024-03-22T12:42:51;0.30;;;0.30;;
10418;SDS011;5256;48.728;9.140;2024-03-22T12:45:17;0.30;;;0.30;;
10418;SDS011;5256;48.728;9.140;2024-03-22T12:47:42;0.20;;;0.20;;
10418;SDS011;5256;48.728;9.140;2024-03-22T12:50:08;0.20;;;0.20;;
10418;SDS011;5256;48.728;9.140;2024-03-22T12:52:34;0.30;;;0.30;;
10418;SDS011;5256;48.728;9.140;2024-03-22T12:55:00;0.20;;;0.20;;
10418;SDS011;5256;48.728;9.140;2024-03-22T12:57:25;0.20;;;0.20;;
10418;SDS011;5256;48.728;9.140;2024-03-22T12:59:51;0.30;;;0.30;;
10418;SDS011;5256;48.728;9.140;2024-03-22T13:02:16;0.20;;;0.20;;
10418;SDS011;5256;48.728;9.140;2024-03-22T13:04:42;0.20;;;0.20;;
10418;SDS011;5256;48.728;9.140;2024-03-22T13:07:08;0.30;;;0.30;;
10418;SDS011;5256;48.728;9.140;2024-03-22T13:09:33;0.20;;;0.20;;
10418;SDS011;5256;48.728;9.140;2024-03-22T13:11:59;0.20;;;0.20;;
10418;SDS011;5256;48.728;9.140;2024-03-22T13:14:24;0.20;;;0.20;;
10418;SDS011;5256;48.728;9.140;2024-03-22T13:16:50;0.20;;;0.20;;
10418;SDS011;5256;48.728;9.140;2024-03-22T13:19:16;0.20;;;0.20;;
10418;SDS011;5256;48.728;9.140;2024-03-22T13:21:43;0.30;;;0.30;;
10418;SDS011;5256;48.728;9.140;2024-03-22T13:24:12;0.27;;;0.27;;
10418;SDS011;5256;48.728;9.140;2024-03-22T13:26:38;0.23;;;0.23;;
10418;SDS011;5256;48.728;9.140;2024-03-22T13:29:03;0.20;;;0.20;;
10418;SDS011;5256;48.728;9.140;2024-03-22T13:31:29;0.20;;;0.20;;
10418;SDS011;5256;48.728;9.140;2024-03-22T13:33:54;0.20;;;0.20;;
10418;SDS011;5256;48.728;9.140;2024-03-22T13:36:20;0.30;;;0.30;;
10418;SDS011;5256;48.728;9.140;2024-03-22T13:38:46;0.30;;;0.30;;
10418;SDS011;5256;48.728;9.140;2024-03-22T13:41:11;0.23;;;0.23;;
10418;SDS011;5256;48.728;9.140;2024-03-22T13:43:37;0.20;;;0.20;;
10418;SDS011;5256;48.728;9.140;2024-03-22T13:46:04;0.30;;;0.30;;
10418;SDS011;5256;48.728;9.140;2024-03-22T13:48:30;0.30;;;0.30;;
10418;SDS011;5256;48.728;9.140;2024-03-22T13:54:14;0.30;;;0.30;;
10418;SDS011;5256;48.728;9.140;2024-03-22T13:56:40;0.33;;;0.33;;
10418;SDS011;5256;48.728;9.140;2024-03-22T13:59:06;0.23;;;0.23;;
10418;SDS011;5256;48.728;9.140;2024-03-22T14:01:33;0.20;;;0.20;;
10418;SDS011;5256;48.728;9.140;2024-03-22T14:03:59;0.30;;;0.30;;
10418;SDS011;5256;48.728;9.140;2024-03-22T14:06:25;0.20;;;0.20;;
10418;SDS011;5256;48.728;9.140;2024-03-22T14:08:50;0.20;;;0.20;;
10418;SDS011;5256;48.728;9.140;2024-03-22T14:11:19;0.20;;;0.20;;
10418;SDS011;5256;48.728;9.140;2024-03-22T14:13:45;0.20;;;0.20;;
10418;SDS011;5256;48.728;9.140;2024-03-22T14:16:10;0.30;;;0.30;;
10418;SDS011;5256;48.728;9.140;2024-03-22T14:18:36;0.30;;;0.30;;
10418;SDS011;5256;48.728;9.140;2024-03-22T14:21:02;0.30;;;0.30;;
10418;SDS011;5256;48.728;9.140;2024-03-22T14:23:27;0.20;;;0.20;;
10418;SDS011;5256;48.728;9.140;2024-03-22T14:25:54;0.30;;;0.30;;
10418;SDS011;5256;48.728;9.140;2024-03-22T14:28:20;0.30;;;0.30;;
10418;SDS011;5256;48.728;9.140;2024-03-22T14:30:46;0.20;;;0.20;;
10418;SDS011;5256;48.728;9.140;2024-03-22T14:33:12;0.20;;;0.20;;
10418;SDS011;5256;48.728;9.140;2024-03-22T14:35:38;0.20;;;0.20;;
10418;SDS011;5256;48.728;9.140;2024-03-22T14:38:03;0.30;;;0.30;;
10418;SDS011;5256;48.728;9.140;2024-03-22T14:40:29;0.30;;;0.30;;
10418;SDS011;5256;48.728;9.140;2024-03-22T14:42:56;0.30;;;0.30;;
10418;SDS011;5256;48.728;9.140;2024-03-22T14:45:22;0.20;;;0.20;;
10418;SDS011;5256;48.728;9.140;2024-03-22T14:47:47;0.20;;;0.20;;
10418;SDS011;5256;48.728;9.140;2024-03-22T14:50:13;0.20;;;0.20;;
10418;SDS011;5256;48.728;9.140;2024-03-22T14:52:38;0.20;;;0.20;;
10418;SDS011;5256;48.728;9.140;2024-03-22T14:55:04;0.30;;;0.30;;
10418;SDS011;5256;48.728;9.140;2024-03-22T14:57:31;0.20;;;0.20;;
10418;SDS011;5256;48.728;9.140;2024-03-22T14:59:56;0.30;;;0.30;;